createdAt,value
2022-10-28T00:01:15.191Z,13.32
2022-10-28T00:03:44.947Z,13.80
2022-10-28T00:06:25.283Z,14.38
2022-10-28T00:08:55.089Z,14.88
2022-10-28T00:11:25.496Z,13.00
2022-10-28T00:13:57.091Z,15.00
2022-10-28T00:16:29.321Z,14.13
2022-10-28T00:18:58.245Z,14.00
2022-10-28T00:21:29.130Z,15.00
2022-10-28T00:23:56.518Z,14.82
2022-10-28T00:26:42.669Z,14.65
2022-10-28T00:29:18.303Z,14.87
2022-10-28T00:31:45.599Z,13.73
2022-10-28T00:34:15.390Z,14.50
2022-10-28T00:36:44.527Z,13.52
2022-10-28T00:39:15.505Z,12.75
2022-10-28T00:41:46.282Z,12.85
2022-10-28T00:44:44.228Z,12.45
2022-10-28T00:49:44.684Z,11.68
2022-10-28T00:52:18.922Z,11.57
2022-10-28T00:54:46.283Z,10.40
2022-10-28T00:57:17.118Z,10.35
2022-10-28T00:59:48.885Z,10.48
2022-10-28T01:02:16.409Z,10.70
2022-10-28T01:04:44.541Z,10.75
2022-10-28T01:07:11.479Z,11.25
2022-10-28T01:09:40.520Z,10.52
2022-10-28T01:12:27.552Z,10.45
2022-10-28T01:17:36.422Z,10.18
2022-10-28T01:20:41.772Z,11.00
2022-10-28T01:23:16.566Z,10.27
2022-10-28T01:26:01.943Z,11.15
2022-10-28T01:28:50.412Z,9.88
2022-10-28T01:31:41.074Z,10.35
2022-10-28T01:34:32.159Z,9.95
2022-10-28T01:37:17.449Z,8.95
2022-10-28T01:39:53.681Z,9.20
2022-10-28T01:42:29.456Z,10.23
2022-10-28T01:45:20.906Z,10.20
2022-10-28T01:47:54.573Z,10.32
2022-10-28T01:50:27.405Z,10.23
2022-10-28T01:52:58.396Z,10.02
2022-10-28T01:55:36.562Z,9.75
2022-10-28T01:58:05.252Z,9.15
2022-10-28T02:00:34.570Z,9.88
2022-10-28T02:03:01.453Z,10.20
2022-10-28T02:05:48.707Z,10.30
2022-10-28T02:08:18.328Z,9.65
2022-10-28T02:11:03.365Z,9.30
2022-10-28T02:13:52.965Z,9.30
2022-10-28T02:16:25.486Z,8.57
2022-10-28T02:19:13.680Z,9.55
2022-10-28T02:21:49.945Z,10.32
2022-10-28T02:24:22.812Z,10.13
2022-10-28T02:27:12.866Z,10.13
2022-10-28T02:30:06.014Z,9.50
2022-10-28T02:32:38.862Z,10.02
2022-10-28T02:35:10.679Z,9.68
2022-10-28T02:37:40.702Z,9.68
2022-10-28T02:40:13.015Z,10.45
2022-10-28T02:42:58.394Z,10.07
2022-10-28T02:45:40.300Z,9.48
2022-10-28T02:48:29.555Z,9.68
2022-10-28T02:51:06.379Z,8.48
2022-10-28T02:53:44.541Z,8.98
2022-10-28T02:56:15.112Z,8.45
2022-10-28T02:58:42.521Z,8.85
2022-10-28T03:01:09.544Z,9.82
2022-10-28T03:03:36.905Z,10.52
2022-10-28T03:06:04.219Z,12.55
2022-10-28T03:08:31.162Z,11.38
2022-10-28T03:10:58.202Z,11.60
2022-10-28T03:13:24.982Z,11.93
2022-10-28T03:15:52.125Z,11.65
2022-10-28T03:18:19.004Z,11.90
2022-10-28T03:20:45.872Z,11.80
2022-10-28T03:23:13.463Z,10.80
2022-10-28T03:25:40.405Z,11.02
2022-10-28T03:28:07.312Z,11.32
2022-10-28T03:30:42.331Z,11.13
2022-10-28T03:33:09.482Z,10.52
2022-10-28T03:35:36.317Z,10.50
2022-10-28T03:38:03.582Z,10.82
2022-10-28T03:40:30.523Z,10.90
2022-10-28T03:42:57.652Z,9.80
2022-10-28T03:45:26.415Z,9.80
2022-10-28T03:47:53.692Z,9.55
2022-10-28T03:50:21.076Z,9.55
2022-10-28T03:52:48.234Z,9.30
2022-10-28T03:55:15.182Z,10.85
2022-10-28T03:57:42.140Z,10.40
2022-10-28T04:00:09.802Z,9.63
2022-10-28T04:02:39.122Z,10.15
2022-10-28T04:05:07.783Z,9.57
2022-10-28T04:07:35.362Z,10.70
2022-10-28T04:10:02.274Z,10.20
2022-10-28T04:12:30.322Z,10.18
2022-10-28T04:14:57.378Z,10.15
2022-10-28T04:17:24.365Z,9.80
2022-10-28T04:19:51.166Z,9.75
2022-10-28T04:22:18.454Z,10.13
2022-10-28T04:24:45.284Z,10.32
2022-10-28T04:27:12.151Z,10.13
2022-10-28T04:29:39.012Z,10.13
2022-10-28T04:32:05.951Z,10.07
2022-10-28T04:34:32.944Z,10.50
2022-10-28T04:37:00.947Z,10.57
2022-10-28T04:39:27.892Z,10.50
2022-10-28T04:41:55.225Z,10.57
2022-10-28T04:44:22.208Z,10.15
2022-10-28T04:46:48.995Z,10.32
2022-10-28T04:49:16.098Z,11.43
2022-10-28T04:51:43.394Z,10.93
2022-10-28T04:54:10.524Z,10.93
2022-10-28T04:56:37.679Z,11.02
2022-10-28T04:59:04.752Z,11.68
2022-10-28T05:01:31.673Z,12.27
2022-10-28T05:04:00.784Z,13.05
2022-10-28T05:06:28.929Z,12.63
2022-10-28T05:08:55.923Z,12.63
2022-10-28T05:11:29.388Z,10.73
2022-10-28T05:13:56.375Z,12.23
2022-10-28T05:16:23.500Z,13.32
2022-10-28T05:18:50.365Z,12.32
2022-10-28T05:21:17.437Z,11.75
2022-10-28T05:23:44.322Z,12.52
2022-10-28T05:26:11.184Z,11.90
2022-10-28T05:28:38.133Z,12.52
2022-10-28T05:31:05.017Z,12.50
2022-10-28T05:33:33.736Z,13.43
2022-10-28T05:36:01.097Z,13.98
2022-10-28T05:38:28.223Z,13.07
2022-10-28T05:40:55.379Z,12.93
2022-10-28T05:43:22.515Z,14.48
2022-10-28T05:45:57.131Z,14.50
2022-10-28T05:48:24.576Z,14.60
2022-10-28T05:50:51.456Z,13.82
2022-10-28T05:53:18.284Z,13.27
2022-10-28T05:55:47.788Z,12.98
2022-10-28T05:58:15.333Z,12.32
2022-10-28T06:00:42.091Z,12.85
2022-10-28T06:03:12.351Z,20.17
2022-10-28T06:05:45.323Z,21.27
2022-10-28T06:08:13.779Z,17.85
2022-10-28T06:10:41.979Z,17.02
2022-10-28T06:13:07.901Z,15.20
2022-10-28T06:15:34.980Z,14.10
2022-10-28T06:18:01.823Z,14.98
2022-10-28T06:20:28.733Z,14.30
2022-10-28T06:22:56.423Z,12.90
2022-10-28T06:25:24.909Z,12.45
2022-10-28T06:27:54.331Z,12.43
2022-10-28T06:30:22.561Z,11.10
2022-10-28T06:32:49.646Z,10.85
2022-10-28T06:35:17.255Z,13.00
2022-10-28T06:37:44.058Z,15.20
2022-10-28T06:40:10.997Z,20.42
2022-10-28T06:42:45.674Z,20.95
2022-10-28T06:45:12.701Z,18.25
2022-10-28T06:47:41.692Z,17.17
2022-10-28T06:50:09.033Z,14.35
2022-10-28T06:52:36.065Z,13.95
2022-10-28T06:55:02.964Z,13.63
2022-10-28T06:57:31.022Z,11.75
2022-10-28T06:59:57.941Z,12.13
2022-10-28T07:02:24.784Z,12.48
2022-10-28T07:04:51.855Z,10.68
2022-10-28T07:07:19.759Z,12.13
2022-10-28T07:09:46.720Z,11.15
2022-10-28T07:12:13.710Z,11.75
2022-10-28T07:14:43.005Z,15.15
2022-10-28T07:17:09.893Z,17.83
2022-10-28T07:19:36.806Z,16.67
2022-10-28T07:22:03.662Z,17.25
2022-10-28T07:24:30.600Z,15.15
2022-10-28T07:26:57.944Z,15.73
2022-10-28T07:29:25.315Z,12.93
2022-10-28T07:31:54.840Z,15.75
2022-10-28T07:34:27.005Z,13.45
2022-10-28T07:36:55.365Z,13.48
2022-10-28T07:39:22.551Z,14.43
2022-10-28T07:41:49.523Z,13.43
2022-10-28T07:44:16.520Z,13.30
2022-10-28T07:46:43.499Z,9.55
2022-10-28T07:49:10.928Z,12.85
2022-10-28T07:51:37.797Z,13.50
2022-10-28T07:54:06.074Z,12.88
2022-10-28T07:56:32.894Z,12.45
2022-10-28T07:59:00.619Z,11.23
2022-10-28T08:01:27.652Z,7.82
2022-10-28T08:03:54.824Z,12.73
2022-10-28T08:06:22.258Z,13.27
2022-10-28T08:08:54.716Z,14.25
2022-10-28T08:11:25.575Z,12.13
2022-10-28T08:13:53.768Z,7.63
2022-10-28T08:16:20.770Z,7.00
2022-10-28T08:18:48.182Z,6.95
2022-10-28T08:21:15.447Z,7.50
2022-10-28T08:23:46.681Z,6.65
2022-10-28T08:26:15.098Z,7.32
2022-10-28T08:28:42.827Z,7.68
2022-10-28T08:31:12.493Z,7.40
2022-10-28T08:33:42.813Z,8.63
2022-10-28T08:36:12.725Z,8.82
2022-10-28T08:38:45.157Z,7.32
2022-10-28T08:41:30.627Z,8.55
2022-10-28T08:44:23.978Z,9.40
2022-10-28T08:47:09.358Z,9.25
2022-10-28T08:49:41.724Z,8.48
2022-10-28T08:52:30.493Z,9.27
2022-10-28T08:55:07.745Z,9.05
2022-10-28T08:57:47.367Z,8.98
2022-10-28T09:00:28.529Z,9.43
2022-10-28T09:03:14.748Z,8.55
2022-10-28T09:05:45.168Z,8.60
2022-10-28T09:08:29.592Z,8.98
2022-10-28T09:11:34.822Z,8.90
2022-10-28T09:14:30.132Z,10.48
2022-10-28T09:17:14.047Z,10.52
2022-10-28T09:19:52.975Z,10.45
2022-10-28T09:23:01.071Z,9.23
2022-10-28T09:25:49.721Z,8.75
2022-10-28T09:28:46.685Z,7.88
2022-10-28T09:31:37.961Z,7.47
2022-10-28T09:34:14.425Z,8.10
2022-10-28T09:36:46.704Z,5.97
2022-10-28T09:39:28.050Z,5.47
2022-10-28T09:41:59.917Z,5.45
2022-10-28T09:44:54.375Z,5.65
2022-10-28T09:47:26.891Z,6.10
2022-10-28T09:50:00.069Z,6.75
2022-10-28T09:52:33.649Z,7.65
2022-10-28T09:55:08.056Z,6.50
2022-10-28T09:57:35.311Z,6.65
2022-10-28T10:00:02.421Z,5.93
2022-10-28T10:02:32.159Z,6.38
2022-10-28T10:05:00.858Z,6.80
2022-10-28T10:07:35.958Z,7.07
2022-10-28T10:10:10.653Z,8.40
2022-10-28T10:12:39.240Z,8.73
2022-10-28T10:15:11.930Z,10.52
2022-10-28T10:17:48.994Z,7.93
2022-10-28T10:20:19.893Z,7.90
2022-10-28T10:22:49.409Z,8.23
2022-10-28T10:25:19.258Z,8.70
2022-10-28T10:28:15.812Z,8.43
2022-10-28T10:30:52.666Z,6.60
2022-10-28T10:33:26.738Z,6.95
2022-10-28T10:36:00.181Z,7.57
2022-10-28T10:38:29.133Z,6.75
2022-10-28T10:40:56.895Z,5.70
2022-10-28T10:43:37.065Z,5.13
2022-10-28T10:46:05.317Z,5.57
2022-10-28T10:48:38.619Z,4.63
2022-10-28T10:51:07.167Z,5.30
2022-10-28T10:53:35.511Z,5.32
2022-10-28T10:56:05.516Z,5.20
2022-10-28T10:58:40.281Z,4.78
2022-10-28T11:01:09.724Z,4.85
2022-10-28T11:03:50.283Z,5.70
2022-10-28T11:06:30.501Z,5.30
2022-10-28T11:09:02.806Z,4.75
2022-10-28T11:11:36.273Z,4.65
2022-10-28T11:14:10.144Z,5.07
2022-10-28T11:17:00.461Z,4.72
2022-10-28T11:19:37.272Z,4.70
2022-10-28T11:22:38.449Z,4.65
2022-10-28T11:25:34.783Z,3.90
2022-10-28T11:28:21.845Z,3.30
2022-10-28T11:31:00.519Z,3.60
2022-10-28T11:34:09.235Z,5.90
2022-10-28T11:37:10.196Z,4.18
2022-10-28T11:40:14.064Z,4.10
2022-10-28T11:43:18.543Z,4.35
2022-10-28T11:45:51.560Z,4.53
2022-10-28T11:48:33.180Z,5.57
2022-10-28T11:51:18.215Z,3.80
2022-10-28T11:54:13.343Z,4.40
2022-10-28T11:56:47.656Z,4.18
2022-10-28T11:59:17.385Z,4.53
2022-10-28T12:02:12.239Z,4.60
2022-10-28T12:04:53.515Z,4.30
2022-10-28T12:07:35.419Z,4.55
2022-10-28T12:10:19.719Z,5.20
2022-10-28T12:13:05.253Z,6.38
2022-10-28T12:15:31.991Z,5.40
2022-10-28T12:18:11.610Z,5.22
2022-10-28T12:20:42.634Z,4.30
2022-10-28T12:23:17.164Z,5.00
2022-10-28T12:25:48.193Z,6.68
2022-10-28T12:28:21.774Z,6.22
2022-10-28T12:30:51.014Z,5.80
2022-10-28T12:33:23.943Z,5.70
2022-10-28T12:35:57.893Z,5.88
2022-10-28T12:38:38.574Z,6.45
2022-10-28T12:41:14.423Z,7.72
2022-10-28T12:44:03.084Z,6.80
2022-10-28T12:46:54.860Z,6.97
2022-10-28T12:49:43.992Z,6.22
2022-10-28T12:52:25.121Z,6.22
2022-10-28T12:55:01.897Z,4.78
2022-10-28T12:57:31.013Z,5.13
2022-10-28T13:00:02.230Z,5.30
2022-10-28T13:02:35.732Z,5.30
2022-10-28T13:05:04.897Z,5.80
2022-10-28T13:07:47.560Z,5.70
2022-10-28T13:13:09.330Z,5.85
2022-10-28T13:15:57.900Z,5.03
2022-10-28T13:18:34.891Z,5.10
2022-10-28T13:21:34.285Z,4.78
2022-10-28T13:24:21.464Z,4.95
2022-10-28T13:26:49.293Z,4.38
2022-10-28T13:29:29.502Z,4.60
2022-10-28T13:31:56.546Z,5.22
2022-10-28T13:34:35.299Z,5.05
2022-10-28T13:37:05.081Z,3.63
2022-10-28T13:39:34.793Z,4.10
2022-10-28T13:42:13.889Z,4.63
2022-10-28T13:44:49.509Z,7.38
2022-10-28T13:47:33.829Z,5.97
2022-10-28T13:50:06.560Z,6.28
2022-10-28T13:52:45.159Z,6.28
2022-10-28T13:55:43.646Z,6.80
2022-10-28T13:58:23.194Z,8.02
2022-10-28T14:00:53.260Z,4.65
2022-10-28T14:03:27.295Z,5.65
2022-10-28T14:05:59.665Z,5.32
2022-10-28T14:08:38.533Z,8.25
2022-10-28T14:11:32.997Z,5.18
2022-10-28T14:14:03.504Z,5.57
2022-10-28T14:16:38.345Z,4.90
2022-10-28T14:19:11.302Z,5.45
2022-10-28T14:21:48.830Z,6.97
2022-10-28T14:24:35.984Z,7.30
2022-10-28T14:27:08.741Z,5.85
2022-10-28T14:30:04.199Z,6.85
2022-10-28T14:32:30.940Z,6.38
2022-10-28T14:35:19.390Z,6.32
2022-10-28T14:38:12.235Z,6.75
2022-10-28T14:40:41.925Z,5.45
2022-10-28T14:43:30.327Z,5.82
2022-10-28T14:46:19.237Z,5.38
2022-10-28T14:48:52.459Z,6.53
2022-10-28T14:51:24.473Z,6.45
2022-10-28T14:53:56.653Z,6.10
2022-10-28T14:56:29.095Z,7.05
2022-10-28T14:59:05.197Z,8.57
2022-10-28T15:01:50.787Z,8.18
2022-10-28T15:04:18.438Z,9.02
2022-10-28T15:06:48.240Z,10.20
2022-10-28T15:09:27.434Z,15.20
2022-10-28T15:11:59.950Z,20.83
2022-10-28T15:14:26.716Z,20.45
2022-10-28T15:16:53.895Z,21.88
2022-10-28T15:19:24.775Z,19.42
2022-10-28T15:22:01.824Z,22.10
2022-10-28T15:24:28.693Z,23.38
2022-10-28T15:26:56.683Z,23.80
2022-10-28T15:29:24.552Z,23.60
2022-10-28T15:32:26.780Z,25.80
2022-10-28T15:34:53.793Z,27.88
2022-10-28T15:37:27.020Z,26.77
2022-10-28T15:40:12.559Z,24.85
2022-10-28T15:42:59.500Z,29.85
2022-10-28T15:45:29.627Z,32.38
2022-10-28T15:47:58.585Z,31.20
2022-10-28T15:50:34.125Z,40.20
2022-10-28T15:53:09.995Z,37.60
2022-10-28T15:58:35.890Z,37.20
2022-10-28T16:01:03.101Z,42.05
2022-10-28T16:03:48.476Z,42.38
2022-10-28T16:06:24.109Z,41.72
2022-10-28T16:09:09.828Z,38.93
2022-10-28T16:11:42.713Z,40.90
2022-10-28T16:14:46.604Z,41.38
2022-10-28T16:17:18.313Z,41.20
2022-10-28T16:20:00.473Z,32.35
2022-10-28T16:22:29.489Z,28.52
2022-10-28T16:24:56.718Z,26.02
2022-10-28T16:27:31.925Z,26.42
2022-10-28T16:29:58.979Z,23.75
2022-10-28T16:32:31.750Z,24.80
2022-10-28T16:35:01.151Z,22.20
2022-10-28T16:37:31.082Z,22.23
2022-10-28T16:40:00.976Z,21.80
2022-10-28T16:42:27.955Z,20.83
2022-10-28T16:44:54.782Z,21.05
2022-10-28T16:47:24.426Z,22.83
2022-10-28T16:49:54.509Z,21.83
2022-10-28T16:52:28.234Z,22.75
2022-10-28T16:54:55.931Z,23.67
2022-10-28T16:59:51.365Z,20.20
2022-10-28T17:02:27.736Z,20.55
2022-10-28T17:04:55.388Z,20.35
2022-10-28T17:07:30.821Z,19.10
2022-10-28T17:09:57.743Z,19.80
2022-10-28T17:12:27.084Z,22.00
2022-10-28T17:14:54.113Z,20.77
2022-10-28T17:17:23.436Z,26.60
2022-10-28T17:19:50.408Z,23.38
2022-10-28T17:22:17.377Z,24.48
2022-10-28T17:24:44.302Z,25.90
2022-10-28T17:27:11.145Z,26.05
2022-10-28T17:29:39.041Z,29.17
2022-10-28T17:32:09.907Z,27.50
2022-10-28T17:34:36.773Z,29.27
2022-10-28T17:37:04.504Z,27.60
2022-10-28T17:39:31.348Z,28.58
2022-10-28T17:42:16.770Z,28.08
2022-10-28T17:44:43.582Z,33.22
2022-10-28T17:47:12.304Z,33.90
2022-10-28T17:49:39.306Z,34.72
2022-10-28T17:52:06.141Z,34.55
2022-10-28T17:54:33.053Z,34.88
2022-10-28T17:57:00.025Z,36.65
2022-10-28T17:59:26.913Z,37.40
2022-10-28T18:01:54.915Z,36.53
2022-10-28T18:04:26.682Z,38.72
2022-10-28T18:06:55.372Z,39.30
2022-10-28T18:09:22.555Z,37.47
2022-10-28T18:11:50.755Z,40.53
2022-10-28T18:14:18.053Z,38.38
2022-10-28T18:16:46.124Z,40.08
2022-10-28T18:19:13.784Z,41.88
2022-10-28T18:21:40.596Z,41.72
2022-10-28T18:24:07.898Z,43.75
2022-10-28T18:26:36.983Z,44.17
2022-10-28T18:29:05.662Z,43.38
2022-10-28T18:31:33.840Z,43.63
2022-10-28T18:34:01.698Z,44.00
2022-10-28T18:36:34.459Z,43.88
2022-10-28T18:39:04.654Z,42.17
2022-10-28T18:41:32.246Z,43.00
2022-10-28T18:44:01.606Z,41.55
2022-10-28T18:46:30.067Z,38.30
2022-10-28T18:51:27.568Z,40.33
2022-10-28T18:53:55.773Z,39.33
2022-10-28T18:56:30.922Z,40.28
2022-10-28T18:58:58.745Z,40.30
2022-10-28T19:01:28.328Z,38.40
2022-10-28T19:04:00.327Z,42.80
2022-10-28T19:06:32.970Z,40.60
2022-10-28T19:09:02.345Z,42.67
2022-10-28T19:11:31.374Z,43.97
2022-10-28T19:14:00.301Z,43.47
2022-10-28T19:16:28.577Z,47.72
2022-10-28T19:18:57.393Z,46.20
2022-10-28T19:21:25.523Z,43.90
2022-10-28T19:23:52.927Z,44.33
2022-10-28T19:26:20.170Z,43.13
2022-10-28T19:28:48.425Z,45.38
2022-10-28T19:31:24.762Z,51.67
2022-10-28T19:33:55.272Z,64.88
2022-10-28T19:36:27.134Z,64.43
2022-10-28T19:38:54.966Z,65.68
2022-10-28T19:41:24.806Z,67.70
2022-10-28T19:43:58.230Z,70.80
2022-10-28T19:46:27.249Z,69.20
2022-10-28T19:48:56.677Z,70.40
2022-10-28T19:51:27.327Z,63.85
2022-10-28T19:53:57.037Z,66.63
2022-10-28T19:56:24.030Z,59.15
2022-10-28T19:58:53.565Z,60.83
2022-10-28T20:01:22.204Z,44.72
2022-10-28T20:03:53.201Z,40.08
2022-10-28T20:06:25.598Z,35.05
2022-10-28T20:08:53.195Z,34.55
2022-10-28T20:11:25.886Z,33.28
2022-10-28T20:14:02.374Z,34.22
2022-10-28T20:16:29.418Z,36.75
2022-10-28T20:18:57.767Z,43.70
2022-10-28T20:21:30.226Z,44.80
2022-10-28T20:23:58.169Z,36.47
2022-10-28T20:26:30.750Z,37.53
2022-10-28T20:28:58.281Z,35.53
2022-10-28T20:31:27.295Z,35.20
2022-10-28T20:34:03.921Z,28.85
2022-10-28T20:36:39.036Z,32.95
2022-10-28T20:39:13.825Z,36.88
2022-10-28T20:41:42.076Z,36.67
2022-10-28T20:44:08.893Z,36.10
2022-10-28T20:46:36.320Z,36.63
2022-10-28T20:49:04.194Z,38.38
2022-10-28T20:51:32.497Z,34.33
2022-10-28T20:54:00.317Z,31.70
2022-10-28T20:56:29.671Z,30.92
2022-10-28T20:58:58.113Z,32.17
2022-10-28T21:01:30.864Z,37.22
2022-10-28T21:04:00.526Z,36.83
2022-10-28T21:06:28.029Z,35.92
2022-10-28T21:08:55.478Z,37.80
2022-10-28T21:11:23.652Z,36.88
2022-10-28T21:13:52.657Z,35.88
2022-10-28T21:16:20.614Z,34.83
2022-10-28T21:18:49.688Z,35.70
2022-10-28T21:21:17.567Z,35.40
2022-10-28T21:23:44.449Z,35.55
2022-10-28T21:26:12.504Z,34.13
2022-10-28T21:28:42.612Z,33.92
2022-10-28T21:31:15.045Z,36.15
2022-10-28T21:33:43.039Z,34.25
2022-10-28T21:36:12.974Z,33.85
2022-10-28T21:38:40.060Z,33.70
2022-10-28T21:41:18.379Z,34.15
2022-10-28T21:43:50.945Z,36.15
2022-10-28T21:46:18.991Z,30.17
2022-10-28T21:48:46.601Z,30.67
2022-10-28T21:51:15.481Z,28.63
2022-10-28T21:53:44.178Z,26.30
2022-10-28T21:56:18.857Z,23.33
2022-10-28T21:58:48.243Z,25.23
2022-10-28T22:01:18.964Z,23.85
2022-10-28T22:03:46.139Z,25.15
2022-10-28T22:06:13.344Z,25.90
2022-10-28T22:08:40.178Z,26.48
2022-10-28T22:11:15.725Z,28.52
2022-10-28T22:13:42.729Z,26.70
2022-10-28T22:16:15.516Z,26.45
2022-10-28T22:18:43.176Z,25.23
2022-10-28T22:21:13.268Z,25.25
2022-10-28T22:23:40.324Z,25.85
2022-10-28T22:26:10.133Z,25.73
2022-10-28T22:28:37.336Z,24.10
2022-10-28T22:33:33.127Z,26.20
2022-10-28T22:36:05.347Z,24.77
2022-10-28T22:38:32.559Z,24.40
2022-10-28T22:41:08.843Z,25.45
2022-10-28T22:43:35.668Z,25.17
2022-10-28T22:46:02.662Z,25.20
2022-10-28T22:48:29.995Z,25.50
2022-10-28T22:50:57.139Z,25.13
2022-10-28T22:53:24.285Z,25.05
2022-10-28T22:55:52.875Z,21.92
2022-10-28T22:58:20.660Z,24.65
2022-10-28T23:00:47.574Z,22.77
2022-10-28T23:03:14.902Z,23.30
2022-10-28T23:05:41.774Z,24.60
2022-10-28T23:08:12.308Z,23.05
2022-10-28T23:10:39.258Z,21.95
2022-10-28T23:13:06.099Z,21.85
2022-10-28T23:15:33.744Z,23.70
2022-10-28T23:18:19.473Z,24.13
2022-10-28T23:20:46.313Z,23.63
2022-10-28T23:23:15.705Z,22.80
2022-10-28T23:25:42.861Z,22.92
2022-10-28T23:28:10.378Z,23.42
2022-10-28T23:30:37.209Z,21.27
2022-10-28T23:33:04.262Z,20.38
2022-10-28T23:35:31.145Z,26.70
2022-10-28T23:37:59.383Z,26.15
2022-10-28T23:40:26.584Z,22.77
2022-10-28T23:42:53.680Z,26.60
2022-10-28T23:45:20.725Z,25.55
2022-10-28T23:47:47.582Z,22.20
2022-10-28T23:50:15.081Z,24.75
2022-10-28T23:52:42.094Z,24.65
2022-10-28T23:55:09.567Z,23.45
2022-10-28T23:57:36.434Z,24.02
